Time;durP1;ratioP1;P1;durP2;ratioP2;P2;SDS_P1;SDS_P2;PMS_P1;PMS_P2;Temp;Humidity;BMP_temperature;BMP_pressure;BME280_temperature;BME280_humidity;BME280_pressure;Samples;Min_cycle;Max_cycle;Signal;HPM_P1;HPM_P2
2023/02/23 00:02:11;;;;;;;15.38;9.68;;;7.10;99.90;;;;;;4994352;28;20109;-59
2023/02/23 00:04:38;;;;;;;15.25;10.43;;;7.10;99.90;;;;;;4994235;28;20053;-59
2023/02/23 00:07:05;;;;;;;12.65;10.15;;;7.00;99.90;;;;;;4994161;28;20046;-58
2023/02/23 00:09:35;;;;;;;12.25;10.80;;;7.00;99.90;;;;;;4994427;28;20133;-57
2023/02/23 00:12:06;;;;;;;15.30;10.43;;;6.90;99.90;;;;;;4994306;28;20374;-54
2023/02/23 00:14:33;;;;;;;13.55;10.43;;;6.90;99.90;;;;;;4994055;28;20077;-58
2023/02/23 00:17:00;;;;;;;12.45;10.77;;;6.90;99.90;;;;;;4994158;28;20129;-57
2023/02/23 00:19:27;;;;;;;14.05;11.15;;;6.90;99.90;;;;;;4993610;28;20432;-57
2023/02/23 00:21:57;;;;;;;13.93;12.43;;;6.90;99.90;;;;;;4994376;28;20050;-57
2023/02/23 00:24:25;;;;;;;14.68;13.13;;;6.90;99.90;;;;;;4993621;28;20442;-56
2023/02/23 00:26:52;;;;;;;15.05;13.45;;;6.80;99.90;;;;;;4994018;28;20096;-58
2023/02/23 00:29:19;;;;;;;15.50;13.48;;;6.80;99.90;;;;;;4993977;28;20441;-57
2023/02/23 00:31:46;;;;;;;15.88;14.07;;;6.80;99.90;;;;;;4992543;28;20092;-57
2023/02/23 00:34:13;;;;;;;16.50;14.80;;;6.90;99.90;;;;;;4992352;28;20094;-56
2023/02/23 00:36:40;;;;;;;19.80;14.32;;;6.90;99.90;;;;;;4993796;28;20125;-57
2023/02/23 00:39:17;;;;;;;15.88;14.18;;;6.90;99.90;;;;;;4992332;28;20050;-57
2023/02/23 00:41:44;;;;;;;16.40;14.00;;;6.90;99.90;;;;;;4993509;28;20047;-59
2023/02/23 00:44:10;;;;;;;18.13;14.25;;;6.80;99.90;;;;;;4991999;28;20548;-55
2023/02/23 00:46:37;;;;;;;15.60;13.65;;;6.80;99.90;;;;;;4992281;28;20061;-57
2023/02/23 00:49:04;;;;;;;15.27;13.60;;;6.80;99.90;;;;;;4993127;28;20398;-59
2023/02/23 00:51:31;;;;;;;14.95;13.35;;;6.80;99.90;;;;;;4993776;28;20127;-59
2023/02/23 00:53:58;;;;;;;17.08;13.75;;;6.80;99.90;;;;;;4993783;28;20046;-59
2023/02/23 00:56:25;;;;;;;16.40;14.70;;;6.80;99.90;;;;;;4993555;28;20074;-59
2023/02/23 00:58:52;;;;;;;14.70;13.20;;;6.80;99.90;;;;;;4992455;28;20518;-60
2023/02/23 01:01:18;;;;;;;17.52;14.15;;;6.70;99.90;;;;;;4993432;28;20046;-55
2023/02/23 01:03:48;;;;;;;16.98;15.27;;;6.80;99.90;;;;;;4991896;28;20054;-58
2023/02/23 01:06:14;;;;;;;17.67;14.00;;;6.80;99.90;;;;;;4993293;28;20058;-59
2023/02/23 01:08:41;;;;;;;17.27;14.57;;;6.70;99.90;;;;;;4992252;28;20631;-59
2023/02/23 01:11:09;;;;;;;16.23;13.55;;;6.70;99.90;;;;;;4994348;28;20505;-57
2023/02/23 01:13:36;;;;;;;16.85;14.60;;;6.70;99.90;;;;;;4996106;28;20409;-57
2023/02/23 01:16:02;;;;;;;17.08;14.45;;;6.60;99.90;;;;;;4997614;28;20563;-57
2023/02/23 01:18:29;;;;;;;16.08;14.00;;;6.60;99.90;;;;;;4996569;28;20108;-58
2023/02/23 01:20:56;;;;;;;14.73;13.18;;;6.60;99.90;;;;;;4995897;28;20054;-54
2023/02/23 01:23:23;;;;;;;18.15;13.50;;;6.60;99.90;;;;;;4995712;28;20051;-59
2023/02/23 01:25:50;;;;;;;14.70;13.10;;;6.60;99.90;;;;;;4997088;28;20046;-58
2023/02/23 01:28:16;;;;;;;16.10;12.98;;;6.60;99.90;;;;;;4995717;28;20043;-58
2023/02/23 01:30:43;;;;;;;15.85;13.35;;;6.60;99.90;;;;;;4995843;28;20125;-59
2023/02/23 01:33:12;;;;;;;15.68;12.80;;;6.60;99.90;;;;;;4979657;28;20050;-59
2023/02/23 01:35:39;;;;;;;14.18;12.68;;;6.60;99.90;;;;;;4997143;28;20046;-59
2023/02/23 01:38:05;;;;;;;14.50;12.80;;;6.60;99.90;;;;;;4996878;28;20046;-59
2023/02/23 01:40:35;;;;;;;13.30;10.57;;;6.60;99.90;;;;;;4996084;28;20051;-59
2023/02/23 01:43:02;;;;;;;12.82;11.20;;;6.60;99.90;;;;;;4995088;28;20171;-57
2023/02/23 01:45:29;;;;;;;12.25;10.88;;;6.60;99.90;;;;;;4995565;28;20034;-59
2023/02/23 01:47:56;;;;;;;13.70;10.50;;;6.60;99.90;;;;;;4995515;28;20512;-59
2023/02/23 01:50:23;;;;;;;11.82;10.48;;;6.60;99.90;;;;;;4995557;28;20508;-58
2023/02/23 01:52:49;;;;;;;11.52;10.27;;;6.60;99.90;;;;;;4995469;28;20540;-56
2023/02/23 01:55:22;;;;;;;11.73;10.02;;;6.60;99.90;;;;;;4995327;28;20445;-57
2023/02/23 01:57:49;;;;;;;11.52;10.27;;;6.60;99.90;;;;;;4995494;28;20038;-60
2023/02/23 02:00:18;;;;;;;10.60;9.52;;;6.50;99.90;;;;;;4995360;28;20042;-57
2023/02/23 02:02:47;;;;;;;10.60;8.88;;;6.50;99.90;;;;;;4996517;28;20054;-57
2023/02/23 02:05:14;;;;;;;9.00;8.02;;;6.60;99.90;;;;;;4994879;28;20117;-57
2023/02/23 02:07:43;;;;;;;10.25;9.25;;;6.60;99.90;;;;;;4996395;28;20042;-58
2023/02/23 02:12:37;;;;;;;10.23;9.00;;;6.60;99.90;;;;;;4996172;28;20034;-57
2023/02/23 02:15:04;;;;;;;9.30;8.40;;;6.60;99.90;;;;;;4996319;28;20046;-58
2023/02/23 02:17:31;;;;;;;9.48;7.93;;;6.60;99.90;;;;;;4996020;28;20050;-58
2023/02/23 02:19:58;;;;;;;9.60;7.82;;;6.60;99.90;;;;;;4995439;28;20536;-57
2023/02/23 02:22:24;;;;;;;8.80;7.35;;;6.60;99.90;;;;;;4994499;28;20050;-53
2023/02/23 02:24:51;;;;;;;8.63;7.18;;;6.60;99.90;;;;;;4994660;28;20474;-59
2023/02/23 02:27:18;;;;;;;7.80;6.32;;;6.60;99.90;;;;;;4978539;28;20050;-58
2023/02/23 02:29:45;;;;;;;8.20;6.28;;;6.60;99.90;;;;;;4996160;28;20105;-58
2023/02/23 02:32:11;;;;;;;6.50;5.57;;;6.60;99.90;;;;;;4994461;28;20138;-59
2023/02/23 02:34:41;;;;;;;8.93;6.20;;;6.60;99.90;;;;;;4995014;28;20058;-59
2023/02/23 02:37:08;;;;;;;7.40;6.05;;;6.70;99.90;;;;;;4995905;28;20042;-60
2023/02/23 02:39:35;;;;;;;6.85;6.00;;;6.70;99.90;;;;;;4994014;28;20408;-58
2023/02/23 02:42:02;;;;;;;6.80;5.82;;;6.60;99.90;;;;;;4994664;28;20046;-60
2023/02/23 02:44:29;;;;;;;7.22;5.80;;;6.60;99.90;;;;;;4994548;28;20047;-60
2023/02/23 02:46:56;;;;;;;8.73;5.80;;;6.60;99.90;;;;;;4995754;28;20039;-57
2023/02/23 02:49:23;;;;;;;7.45;5.70;;;6.60;99.90;;;;;;4994363;28;20101;-58
2023/02/23 02:51:50;;;;;;;7.75;5.97;;;6.60;99.90;;;;;;4994764;28;20076;-59
2023/02/23 02:54:17;;;;;;;6.25;5.03;;;6.70;99.90;;;;;;4995583;28;20042;-57
2023/02/23 02:56:44;;;;;;;9.23;5.70;;;6.60;99.90;;;;;;4994344;28;20590;-54
2023/02/23 04:18:37;;;;;;;7.75;5.57;;;6.60;99.90;;;;;;4993187;28;20490;-59
2023/02/23 04:21:04;;;;;;;9.45;6.28;;;6.60;99.90;;;;;;4994090;28;20046;-59
2023/02/23 04:23:31;;;;;;;8.48;5.85;;;6.60;99.90;;;;;;4993767;28;20409;-59
2023/02/23 04:25:57;;;;;;;7.20;5.88;;;6.60;99.90;;;;;;4993916;28;20046;-59
2023/02/23 04:28:24;;;;;;;9.40;5.90;;;6.60;99.90;;;;;;4994076;28;20057;-57
2023/02/23 04:30:53;;;;;;;8.93;5.60;;;6.60;99.90;;;;;;4994186;28;20434;-57
2023/02/23 04:33:20;;;;;;;7.97;5.45;;;6.60;99.90;;;;;;4993779;28;20046;-56
2023/02/23 04:35:47;;;;;;;6.78;5.38;;;6.70;99.90;;;;;;4994192;28;20411;-59
2023/02/23 04:38:14;;;;;;;8.70;6.40;;;6.70;99.90;;;;;;4993598;28;20081;-58
2023/02/23 04:40:41;;;;;;;7.90;5.93;;;6.60;99.90;;;;;;4994035;28;20513;-57
2023/02/23 04:43:08;;;;;;;8.82;6.07;;;6.70;99.90;;;;;;4994059;28;20042;-59
2023/02/23 04:45:35;;;;;;;5.88;5.05;;;6.60;99.90;;;;;;4993889;28;20042;-59
2023/02/23 04:48:02;;;;;;;6.60;4.88;;;6.60;99.90;;;;;;4993968;28;20034;-60
2023/02/23 04:50:29;;;;;;;7.07;4.97;;;6.60;99.90;;;;;;4993885;28;20047;-58
2023/02/23 04:52:58;;;;;;;6.35;4.70;;;6.60;99.90;;;;;;4993763;28;20097;-58
2023/02/23 04:55:24;;;;;;;7.78;4.85;;;6.60;99.90;;;;;;4993832;28;20057;-58
2023/02/23 04:57:51;;;;;;;6.38;5.00;;;6.60;99.90;;;;;;4993617;28;20054;-55
2023/02/23 05:00:18;;;;;;;7.65;5.00;;;6.60;99.90;;;;;;4993676;28;20046;-58
2023/02/23 05:02:44;;;;;;;6.38;5.40;;;6.60;99.90;;;;;;4993815;28;20050;-60
2023/02/23 05:05:11;;;;;;;8.02;5.18;;;6.60;99.90;;;;;;4993540;28;20061;-54
2023/02/23 05:07:38;;;;;;;8.88;5.50;;;6.60;99.90;;;;;;4993613;28;20049;-55
2023/02/23 05:10:05;;;;;;;7.32;4.85;;;6.60;99.90;;;;;;4993665;28;20042;-58
2023/02/23 05:12:32;;;;;;;6.78;5.38;;;6.60;99.90;;;;;;4993476;28;20045;-57
2023/02/23 05:14:59;;;;;;;5.63;4.10;;;6.60;99.90;;;;;;4993688;28;20050;-57
2023/02/23 05:17:25;;;;;;;6.13;4.20;;;6.60;99.90;;;;;;4993333;28;20389;-58
2023/02/23 05:19:52;;;;;;;7.20;4.22;;;6.60;99.90;;;;;;4993506;28;20042;-55
2023/02/23 05:22:19;;;;;;;5.70;4.32;;;6.60;99.90;;;;;;4992816;28;20073;-52
2023/02/23 05:24:46;;;;;;;4.70;4.18;;;6.60;99.90;;;;;;4993663;28;20134;-58
2023/02/23 05:27:13;;;;;;;4.63;4.03;;;6.60;99.90;;;;;;4992206;28;20095;-57
2023/02/23 05:29:40;;;;;;;8.18;4.88;;;6.60;99.90;;;;;;4993375;28;20038;-56
2023/02/23 05:32:06;;;;;;;6.30;4.18;;;6.60;99.90;;;;;;4993105;28;20053;-55
2023/02/23 05:34:34;;;;;;;6.63;4.00;;;6.60;99.90;;;;;;4993260;28;20109;-52
2023/02/23 05:37:00;;;;;;;6.68;4.20;;;6.60;99.90;;;;;;4993025;28;20050;-56
2023/02/23 05:39:27;;;;;;;7.40;4.82;;;6.60;99.90;;;;;;4991752;28;20097;-58
2023/02/23 05:41:54;;;;;;;5.45;3.78;;;6.60;99.90;;;;;;4993212;28;20054;-53
2023/02/23 05:44:21;;;;;;;6.93;3.92;;;6.60;99.90;;;;;;4992461;28;20050;-58
2023/02/23 05:46:47;;;;;;;5.50;3.65;;;6.60;99.90;;;;;;4993124;28;20042;-55
2023/02/23 05:49:14;;;;;;;6.80;3.63;;;6.60;99.90;;;;;;4993122;28;20074;-59
2023/02/23 05:51:41;;;;;;;5.28;3.65;;;6.60;99.90;;;;;;4993083;28;20046;-55
2023/02/23 05:54:09;;;;;;;4.32;3.30;;;6.60;99.90;;;;;;4991731;28;20054;-58
2023/02/23 05:56:35;;;;;;;3.60;2.97;;;6.70;99.90;;;;;;4994619;28;20405;-59
2023/02/23 05:59:03;;;;;;;5.78;3.15;;;6.70;99.90;;;;;;4996925;28;20433;-59
2023/02/23 06:01:30;;;;;;;4.97;2.47;;;6.60;99.90;;;;;;4996970;28;20042;-58
2023/02/23 06:03:57;;;;;;;4.45;2.83;;;6.60;99.90;;;;;;4996362;28;20057;-57
2023/02/23 06:06:24;;;;;;;4.10;2.38;;;6.60;99.90;;;;;;4989226;28;20053;-57
2023/02/23 06:08:51;;;;;;;4.30;2.40;;;6.60;99.90;;;;;;4990209;28;20034;-59
2023/02/23 06:11:18;;;;;;;4.53;2.53;;;6.60;99.90;;;;;;4996359;28;20039;-55
2023/02/23 06:13:45;;;;;;;4.40;2.60;;;6.60;99.90;;;;;;4996757;28;20046;-59
2023/02/23 06:16:11;;;;;;;4.57;2.58;;;6.60;99.90;;;;;;4996329;28;20069;-56
2023/02/23 06:18:38;;;;;;;3.80;2.42;;;6.70;99.90;;;;;;4995744;28;20076;-59
2023/02/23 06:21:05;;;;;;;3.38;2.17;;;6.70;99.90;;;;;;4996540;28;20038;-58
2023/02/23 06:23:32;;;;;;;4.18;2.50;;;6.70;99.90;;;;;;4996094;28;20093;-60
2023/02/23 06:25:59;;;;;;;5.97;2.97;;;6.70;99.90;;;;;;4996430;28;20049;-56
2023/02/23 06:28:25;;;;;;;3.90;2.63;;;6.70;99.90;;;;;;4995707;28;20049;-59
2023/02/23 06:30:52;;;;;;;4.00;2.33;;;6.70;99.90;;;;;;4996199;28;20038;-59
2023/02/23 06:33:19;;;;;;;3.30;2.35;;;6.70;99.90;;;;;;4995827;28;20093;-61
2023/02/23 06:35:46;;;;;;;4.47;2.17;;;6.70;99.90;;;;;;4995027;28;20053;-59
2023/02/23 06:38:13;;;;;;;3.65;2.13;;;6.70;99.90;;;;;;4996089;28;20042;-58
2023/02/23 06:40:40;;;;;;;2.88;2.00;;;6.70;99.90;;;;;;4995425;28;20089;-56
2023/02/23 06:43:07;;;;;;;4.00;2.20;;;6.70;99.90;;;;;;4996346;28;20453;-59
2023/02/23 06:45:33;;;;;;;4.70;2.33;;;6.70;99.90;;;;;;4995959;28;20050;-57
2023/02/23 06:48:00;;;;;;;4.13;2.20;;;6.80;99.90;;;;;;4996040;28;20125;-58
2023/02/23 06:50:27;;;;;;;4.75;2.45;;;6.80;99.90;;;;;;4996210;28;20038;-53
2023/02/23 06:52:55;;;;;;;3.20;2.17;;;6.70;99.90;;;;;;4994442;28;20101;-57
2023/02/23 06:55:22;;;;;;;3.97;2.08;;;6.80;99.90;;;;;;4994380;28;20065;-57
2023/02/23 06:57:49;;;;;;;3.88;2.10;;;6.80;99.90;;;;;;4995415;28;20049;-58
2023/02/23 07:00:16;;;;;;;3.75;2.00;;;6.80;99.90;;;;;;4995862;28;20049;-56
2023/02/23 07:02:43;;;;;;;4.05;2.10;;;6.80;99.90;;;;;;4995272;28;20117;-59
2023/02/23 07:05:10;;;;;;;3.10;1.90;;;6.80;99.90;;;;;;4994076;28;20498;-59
2023/02/23 07:07:37;;;;;;;3.38;2.00;;;6.80;99.90;;;;;;4994676;28;20046;-57
2023/02/23 07:10:04;;;;;;;2.92;1.90;;;6.80;99.90;;;;;;4993891;28;20056;-53
2023/02/23 07:12:31;;;;;;;3.05;2.05;;;6.80;99.90;;;;;;4995286;28;20046;-58
2023/02/23 07:14:58;;;;;;;4.38;2.20;;;6.80;99.90;;;;;;4994897;28;20042;-58
2023/02/23 07:17:24;;;;;;;4.45;1.88;;;6.80;99.90;;;;;;4994794;28;20052;-59
2023/02/23 07:19:51;;;;;;;3.90;2.10;;;6.90;99.90;;;;;;4994903;28;20527;-59
2023/02/23 07:22:18;;;;;;;3.22;2.00;;;6.80;99.90;;;;;;4995135;28;20050;-57
2023/02/23 07:24:45;;;;;;;2.80;2.10;;;6.80;99.90;;;;;;4995393;28;20109;-57
2023/02/23 07:27:12;;;;;;;3.42;2.10;;;6.80;99.90;;;;;;4994969;28;20042;-58
2023/02/23 07:29:39;;;;;;;3.63;2.20;;;6.80;99.90;;;;;;4995176;28;20431;-59
2023/02/23 07:32:05;;;;;;;3.08;2.20;;;6.80;99.90;;;;;;4995075;28;20433;-57
2023/02/23 07:34:32;;;;;;;3.40;2.08;;;6.90;99.90;;;;;;4995168;28;20042;-59
2023/02/23 07:36:59;;;;;;;3.30;2.10;;;6.90;99.90;;;;;;4995337;28;20054;-60
2023/02/23 07:39:26;;;;;;;2.72;2.08;;;6.90;99.90;;;;;;4994420;28;20051;-59
2023/02/23 07:41:52;;;;;;;4.65;2.17;;;6.90;99.90;;;;;;4992554;28;20086;-58
2023/02/23 07:44:22;;;;;;;4.35;1.88;;;6.90;99.90;;;;;;4991676;28;20116;-58
2023/02/23 07:46:49;;;;;;;3.65;1.92;;;7.00;99.90;;;;;;4993282;28;20050;-58
2023/02/23 07:49:15;;;;;;;2.85;1.90;;;7.00;99.90;;;;;;4992680;28;20039;-58
2023/02/23 07:51:42;;;;;;;3.88;1.88;;;7.00;99.90;;;;;;4993628;28;20050;-59
2023/02/23 07:54:09;;;;;;;4.28;2.10;;;7.00;99.90;;;;;;4993711;28;20038;-57
2023/02/23 07:56:36;;;;;;;2.70;1.90;;;7.00;99.90;;;;;;4994478;28;20050;-59
2023/02/23 07:59:02;;;;;;;4.65;2.50;;;6.90;99.90;;;;;;4994952;28;20074;-59
2023/02/23 08:01:29;;;;;;;6.22;2.10;;;6.90;99.90;;;;;;4994361;28;20065;-50
2023/02/23 08:03:56;;;;;;;3.08;2.25;;;7.00;99.90;;;;;;4994037;28;20066;-56
2023/02/23 08:06:23;;;;;;;6.22;2.50;;;7.00;99.90;;;;;;4994377;28;20053;-55
2023/02/23 08:08:50;;;;;;;4.22;2.40;;;7.00;99.90;;;;;;4994179;28;20434;-54
2023/02/23 08:11:17;;;;;;;4.50;2.35;;;6.90;99.90;;;;;;4994304;28;20042;-57
2023/02/23 08:13:46;;;;;;;7.05;2.55;;;6.90;99.90;;;;;;4994352;28;20540;-56
2023/02/23 08:16:13;;;;;;;4.05;2.22;;;6.90;99.90;;;;;;4994273;28;20034;-59
2023/02/23 08:18:40;;;;;;;5.82;2.60;;;6.90;99.90;;;;;;4994223;28;20046;-58
2023/02/23 08:21:07;;;;;;;4.28;2.80;;;7.00;99.90;;;;;;4993904;28;20166;-52
2023/02/23 08:23:34;;;;;;;4.20;2.50;;;6.90;99.90;;;;;;4993392;28;20104;-55
2023/02/23 08:26:00;;;;;;;3.25;1.85;;;7.00;99.90;;;;;;4993903;28;20041;-55
2023/02/23 08:28:27;;;;;;;6.38;2.00;;;7.00;99.90;;;;;;4994008;28;20046;-57
2023/02/23 08:30:54;;;;;;;4.65;2.03;;;7.00;99.90;;;;;;4993874;28;20042;-57
2023/02/23 08:33:21;;;;;;;4.18;2.00;;;7.00;99.90;;;;;;4993915;28;20046;-59
2023/02/23 08:35:48;;;;;;;4.70;2.15;;;7.00;99.90;;;;;;4994230;28;20039;-57
2023/02/23 08:38:17;;;;;;;4.68;1.60;;;7.10;99.90;;;;;;4992744;28;20043;-59
2023/02/23 08:40:43;;;;;;;5.03;1.77;;;7.10;99.90;;;;;;4994128;28;20118;-59
2023/02/23 08:43:10;;;;;;;4.25;1.63;;;7.10;99.90;;;;;;4993620;28;20043;-55
2023/02/23 08:45:38;;;;;;;7.15;1.80;;;7.20;99.90;;;;;;4993642;28;20054;-57
2023/02/23 08:48:05;;;;;;;4.28;1.70;;;7.20;99.90;;;;;;4993806;28;20097;-56
2023/02/23 08:50:32;;;;;;;5.93;1.75;;;7.20;99.90;;;;;;4993753;28;20044;-59
2023/02/23 08:52:58;;;;;;;5.68;1.92;;;7.20;99.90;;;;;;4993809;28;20034;-57
2023/02/23 08:55:25;;;;;;;3.78;1.75;;;7.30;99.90;;;;;;4993667;28;20034;-54
2023/02/23 08:57:52;;;;;;;6.10;1.80;;;7.30;99.90;;;;;;4986238;28;20046;-59
2023/02/23 09:00:18;;;;;;;3.38;1.40;;;7.40;99.90;;;;;;4987532;28;20054;-56
2023/02/23 09:02:48;;;;;;;4.25;1.83;;;7.40;99.90;;;;;;4986730;28;20478;-59
2023/02/23 09:05:15;;;;;;;7.20;1.83;;;7.40;99.90;;;;;;4993622;28;20053;-55
2023/02/23 09:07:46;;;;;;;4.45;1.98;;;7.50;99.90;;;;;;4993611;28;20038;-58
2023/02/23 09:10:12;;;;;;;4.40;1.60;;;7.50;99.90;;;;;;4993640;28;20062;-58
2023/02/23 09:12:39;;;;;;;9.25;1.65;;;7.50;99.90;;;;;;4992230;28;20049;-58
2023/02/23 09:15:06;;;;;;;5.88;1.70;;;7.60;99.90;;;;;;4993659;28;20051;-57
2023/02/23 09:17:33;;;;;;;5.03;1.65;;;7.50;99.90;;;;;;4993811;28;20122;-55
2023/02/23 09:20:00;;;;;;;4.80;1.23;;;7.50;99.90;;;;;;4993659;28;20046;-55
2023/02/23 09:22:27;;;;;;;5.50;1.63;;;7.60;99.90;;;;;;4993308;28;20053;-54
2023/02/23 09:24:54;;;;;;;3.88;1.23;;;7.50;99.90;;;;;;4993528;28;20532;-57
2023/02/23 09:27:21;;;;;;;3.35;1.20;;;7.60;99.90;;;;;;4992230;28;20054;-57
2023/02/23 09:29:47;;;;;;;3.55;1.23;;;7.60;99.90;;;;;;4987441;28;20038;-55
2023/02/23 09:32:14;;;;;;;2.70;1.05;;;7.60;99.90;;;;;;4989444;28;20042;-56
2023/02/23 09:34:41;;;;;;;3.03;1.10;;;7.50;99.90;;;;;;4990877;28;20054;-55
2023/02/23 09:37:08;;;;;;;4.03;1.10;;;7.50;99.90;;;;;;4997135;28;20389;-54
2023/02/23 09:39:34;;;;;;;2.58;0.90;;;7.50;99.90;;;;;;4996920;28;20050;-57
2023/02/23 09:42:07;;;;;;;4.40;1.10;;;7.50;99.90;;;;;;4997043;28;20050;-55
2023/02/23 09:44:33;;;;;;;2.65;0.93;;;7.50;99.90;;;;;;4991101;28;20046;-50
2023/02/23 09:47:00;;;;;;;3.85;1.13;;;7.50;99.90;;;;;;4997204;28;20038;-59
2023/02/23 09:49:27;;;;;;;3.53;0.80;;;7.40;99.90;;;;;;4997102;28;20070;-53
2023/02/23 09:51:56;;;;;;;2.85;0.88;;;7.40;99.90;;;;;;4989143;28;20497;-57
2023/02/23 09:54:23;;;;;;;4.72;1.10;;;7.30;99.90;;;;;;4990855;28;20062;-58
2023/02/23 09:56:51;;;;;;;4.15;1.10;;;7.30;99.90;;;;;;4996956;28;20037;-58
2023/02/23 09:59:17;;;;;;;5.20;1.42;;;7.30;99.90;;;;;;4996663;28;20038;-54
2023/02/23 10:01:45;;;;;;;4.30;0.95;;;7.20;99.90;;;;;;4996749;28;20054;-58
2023/02/23 10:04:12;;;;;;;5.47;1.40;;;7.20;99.90;;;;;;4996596;28;20058;-54
2023/02/23 10:06:39;;;;;;;8.88;1.70;;;7.20;99.90;;;;;;4996395;28;20489;-58
2023/02/23 10:09:07;;;;;;;7.75;1.42;;;7.20;99.90;;;;;;4996831;28;20043;-57
2023/02/23 10:11:33;;;;;;;5.65;1.33;;;7.30;99.90;;;;;;4996880;28;20402;-58
2023/02/23 10:14:03;;;;;;;10.63;1.90;;;7.30;99.90;;;;;;4996317;28;20072;-59
2023/02/23 10:16:30;;;;;;;7.70;1.92;;;7.30;99.90;;;;;;4996458;28;20050;-59
2023/02/23 10:18:57;;;;;;;8.00;1.80;;;7.30;99.90;;;;;;4996335;28;20042;-59
2023/02/23 10:21:24;;;;;;;9.55;1.85;;;7.30;99.90;;;;;;4996199;28;20049;-59
2023/02/23 10:23:51;;;;;;;9.30;1.80;;;7.40;99.90;;;;;;4995517;28;20534;-56
2023/02/23 10:26:17;;;;;;;10.63;2.60;;;7.40;99.90;;;;;;4995178;28;20104;-57
2023/02/23 10:28:44;;;;;;;14.95;2.22;;;7.40;99.90;;;;;;4996480;28;20054;-58
2023/02/23 10:31:12;;;;;;;9.65;2.38;;;7.50;99.90;;;;;;4990665;28;20046;-59
2023/02/23 10:33:39;;;;;;;10.15;2.13;;;7.50;99.90;;;;;;4996134;28;20076;-55
2023/02/23 10:36:06;;;;;;;9.23;2.28;;;7.50;99.90;;;;;;4989811;28;20493;-53
2023/02/23 10:38:39;;;;;;;8.40;1.85;;;7.70;99.90;;;;;;4990584;28;20124;-59
2023/02/23 10:41:06;;;;;;;6.68;1.30;;;7.70;99.90;;;;;;4995970;28;20081;-58
2023/02/23 10:43:33;;;;;;;9.45;2.30;;;7.70;99.90;;;;;;4994330;28;20042;-59
2023/02/23 10:46:00;;;;;;;9.48;2.00;;;7.80;99.90;;;;;;4995810;28;20409;-55
2023/02/23 10:48:27;;;;;;;9.15;1.90;;;7.90;99.90;;;;;;4995616;28;20149;-57
2023/02/23 10:50:54;;;;;;;7.90;1.58;;;7.90;99.90;;;;;;4995752;28;20068;-58
2023/02/23 10:53:21;;;;;;;7.22;1.55;;;7.90;99.90;;;;;;4995618;28;20038;-57
2023/02/23 10:55:47;;;;;;;9.13;1.50;;;8.00;99.90;;;;;;4995560;28;20130;-58
2023/02/23 10:58:17;;;;;;;9.40;1.88;;;8.20;99.90;;;;;;4995863;28;20047;-59
2023/02/23 11:00:44;;;;;;;10.60;1.85;;;8.30;99.90;;;;;;4995562;28;20038;-55
2023/02/23 11:03:14;;;;;;;10.57;2.00;;;8.40;99.90;;;;;;4994919;28;20101;-58
2023/02/23 11:05:41;;;;;;;9.68;2.40;;;8.40;99.90;;;;;;4995447;28;20058;-59
2023/02/23 11:08:07;;;;;;;8.40;1.98;;;8.40;99.90;;;;;;4995335;28;20070;-57
2023/02/23 11:10:34;;;;;;;10.90;2.53;;;8.40;99.90;;;;;;4994389;28;20046;-60
2023/02/23 11:13:01;;;;;;;9.95;3.00;;;8.40;99.90;;;;;;4994963;28;20084;-56
2023/02/23 11:15:28;;;;;;;9.27;1.85;;;8.30;99.90;;;;;;4995419;28;20081;-55
2023/02/23 11:18:14;;;;;;;9.65;2.00;;;8.30;99.90;;;;;;4995314;28;20042;-59
2023/02/23 11:20:42;;;;;;;8.60;2.20;;;8.20;99.90;;;;;;4995241;28;20448;-58
2023/02/23 11:23:08;;;;;;;12.82;2.33;;;8.20;99.90;;;;;;4993791;28;20530;-61
2023/02/23 11:25:42;;;;;;;8.07;1.90;;;8.20;99.90;;;;;;4995029;28;20473;-61
2023/02/23 11:28:08;;;;;;;8.73;2.05;;;8.20;99.90;;;;;;4994890;28;20039;-60
2023/02/23 11:30:36;;;;;;;11.15;2.50;;;8.10;99.90;;;;;;4995098;28;20093;-57
2023/02/23 11:33:09;;;;;;;11.43;1.90;;;8.10;99.90;;;;;;4994893;28;20097;-58
2023/02/23 11:35:36;;;;;;;7.13;2.55;;;8.20;99.90;;;;;;4994912;28;20133;-60
2023/02/23 11:38:04;;;;;;;8.43;1.60;;;8.10;99.90;;;;;;4995081;28;20093;-59
2023/02/23 11:40:31;;;;;;;9.52;1.70;;;8.10;99.90;;;;;;4994881;28;20084;-58
2023/02/23 11:42:58;;;;;;;11.07;2.67;;;8.10;99.90;;;;;;4994797;28;20420;-59
2023/02/23 11:45:25;;;;;;;5.85;1.48;;;8.00;99.90;;;;;;4994373;28;20062;-59
2023/02/23 11:47:52;;;;;;;8.80;1.98;;;8.10;99.90;;;;;;4994578;28;20038;-60
2023/02/23 11:50:18;;;;;;;5.03;1.45;;;8.10;99.90;;;;;;4994638;28;20096;-57
2023/02/23 11:52:45;;;;;;;6.60;1.70;;;8.10;99.90;;;;;;4994569;28;20034;-60
2023/02/23 11:55:12;;;;;;;8.38;1.70;;;8.10;99.90;;;;;;4992651;28;20481;-58
2023/02/23 11:57:38;;;;;;;6.75;1.67;;;8.10;99.90;;;;;;4994499;28;20042;-59
2023/02/23 12:00:05;;;;;;;7.00;1.40;;;8.20;99.90;;;;;;4993397;28;20050;-59
2023/02/23 12:02:37;;;;;;;6.10;1.48;;;8.20;99.90;;;;;;4994466;28;20117;-59
2023/02/23 12:05:04;;;;;;;6.88;1.58;;;8.20;99.90;;;;;;4994258;28;20054;-56
2023/02/23 12:07:33;;;;;;;8.98;2.10;;;8.30;99.90;;;;;;4994468;28;20053;-56
2023/02/23 12:10:00;;;;;;;7.85;2.10;;;8.40;99.90;;;;;;4994355;28;20042;-59
2023/02/23 12:12:27;;;;;;;6.05;1.65;;;8.40;99.90;;;;;;4994243;28;20437;-59
2023/02/23 12:14:54;;;;;;;8.02;1.60;;;8.40;99.90;;;;;;4994528;28;20042;-60
2023/02/23 12:17:21;;;;;;;6.57;1.42;;;8.50;99.90;;;;;;4994423;28;20059;-57
2023/02/23 12:19:48;;;;;;;8.02;1.50;;;8.60;99.90;;;;;;4993725;28;20047;-57
2023/02/23 12:22:15;;;;;;;3.75;1.10;;;8.50;99.90;;;;;;4994085;28;20438;-57
2023/02/23 12:24:42;;;;;;;7.80;1.80;;;8.60;99.90;;;;;;4994363;28;20046;-58
2023/02/23 12:27:11;;;;;;;5.47;1.20;;;8.60;99.90;;;;;;4994647;28;20485;-59
2023/02/23 12:29:38;;;;;;;6.55;1.42;;;8.70;99.90;;;;;;4994221;28;20496;-57
2023/02/23 12:32:05;;;;;;;6.95;1.52;;;8.70;99.90;;;;;;4993852;28;20073;-59
2023/02/23 12:34:32;;;;;;;6.45;1.20;;;8.80;99.90;;;;;;4994146;28;20046;-58
2023/02/23 12:36:58;;;;;;;3.20;1.10;;;8.90;99.90;;;;;;4993683;28;20165;-58
2023/02/23 12:39:26;;;;;;;7.28;1.13;;;8.90;99.90;;;;;;4994048;28;20100;-58
2023/02/23 12:41:53;;;;;;;5.35;1.15;;;9.00;99.90;;;;;;4994008;28;20092;-60
2023/02/23 12:44:20;;;;;;;3.63;1.30;;;8.90;99.90;;;;;;4993930;28;20410;-58
2023/02/23 12:46:47;;;;;;;4.57;1.10;;;8.90;99.90;;;;;;4992665;28;20104;-60
2023/02/23 12:49:15;;;;;;;5.30;1.20;;;9.00;99.90;;;;;;4993951;28;20042;-58
2023/02/23 12:51:42;;;;;;;4.75;0.88;;;8.90;99.90;;;;;;4993973;28;20050;-58
2023/02/23 12:54:09;;;;;;;7.00;1.55;;;9.00;99.90;;;;;;4993842;28;20039;-58
2023/02/23 12:56:36;;;;;;;4.13;1.20;;;9.10;99.90;;;;;;4993746;28;20046;-59
2023/02/23 12:59:04;;;;;;;4.25;1.38;;;9.00;99.90;;;;;;4993779;28;20041;-56
2023/02/23 13:01:30;;;;;;;5.70;1.15;;;9.00;99.90;;;;;;4993771;28;20046;-58
2023/02/23 13:03:57;;;;;;;3.63;1.08;;;8.90;99.90;;;;;;4993129;28;20493;-55
2023/02/23 13:06:24;;;;;;;4.68;1.08;;;8.80;99.90;;;;;;4994515;28;20050;-59
2023/02/23 13:08:51;;;;;;;5.97;1.20;;;8.80;99.90;;;;;;4997789;28;20042;-57
2023/02/23 13:11:18;;;;;;;4.05;1.17;;;8.70;99.90;;;;;;4997537;28;20054;-60
2023/02/23 13:13:45;;;;;;;4.20;1.10;;;8.60;99.90;;;;;;4996474;28;20060;-55
2023/02/23 13:16:12;;;;;;;9.63;1.73;;;8.50;99.90;;;;;;4997772;28;20081;-59
2023/02/23 13:18:39;;;;;;;4.88;1.35;;;8.50;99.90;;;;;;4995916;28;20154;-59
2023/02/23 13:21:05;;;;;;;6.03;1.80;;;8.70;99.90;;;;;;4997636;28;20137;-60
2023/02/23 13:23:32;;;;;;;3.45;1.20;;;8.80;99.90;;;;;;4997431;28;20408;-60
2023/02/23 13:25:59;;;;;;;7.05;2.10;;;8.90;99.90;;;;;;4996441;28;20052;-60
2023/02/23 13:28:27;;;;;;;5.97;1.33;;;8.80;99.90;;;;;;4997222;28;20497;-58
2023/02/23 13:30:53;;;;;;;7.10;2.00;;;8.80;99.90;;;;;;4997332;28;20034;-56
2023/02/23 13:33:22;;;;;;;6.05;1.35;;;8.90;99.90;;;;;;4997341;28;20042;-60
2023/02/23 13:35:53;;;;;;;6.72;1.30;;;8.80;99.90;;;;;;4997264;28;20481;-60
2023/02/23 13:38:19;;;;;;;6.13;1.63;;;8.70;99.90;;;;;;4995738;28;20050;-58
2023/02/23 13:40:46;;;;;;;4.32;1.17;;;8.70;99.90;;;;;;4995797;28;20069;-60
2023/02/23 13:43:16;;;;;;;4.30;1.15;;;8.60;99.90;;;;;;4996979;28;20126;-57
2023/02/23 13:45:43;;;;;;;2.75;1.00;;;8.50;99.90;;;;;;4995762;28;20116;-55
2023/02/23 13:48:10;;;;;;;5.22;1.00;;;8.50;99.90;;;;;;4997016;28;20034;-58
2023/02/23 13:50:36;;;;;;;7.45;1.60;;;8.50;99.90;;;;;;4996994;28;20181;-59
2023/02/23 13:53:03;;;;;;;4.43;1.30;;;8.60;99.90;;;;;;4996917;28;20100;-60
2023/02/23 13:55:31;;;;;;;10.90;1.42;;;8.60;99.90;;;;;;4995768;28;20043;-58
2023/02/23 13:58:14;;;;;;;5.90;1.40;;;8.60;99.90;;;;;;4996899;28;20504;-59
2023/02/23 14:00:40;;;;;;;7.32;1.77;;;8.60;99.90;;;;;;4995644;28;20405;-59
2023/02/23 14:03:07;;;;;;;7.10;2.17;;;8.60;99.90;;;;;;4996778;28;20050;-59
2023/02/23 14:05:34;;;;;;;7.10;1.60;;;8.60;99.90;;;;;;4996874;28;20097;-56
2023/02/23 14:08:01;;;;;;;6.38;1.63;;;8.70;99.90;;;;;;4996896;28;20042;-54
2023/02/23 14:10:28;;;;;;;5.65;1.52;;;8.70;99.90;;;;;;4996441;28;20097;-57
2023/02/23 14:12:54;;;;;;;9.35;1.98;;;8.70;99.90;;;;;;4996641;28;20046;-58
2023/02/23 14:15:21;;;;;;;7.95;1.80;;;8.80;99.90;;;;;;4996631;28;20093;-60